This is the latest recevied weather packets stored in our database for station/object KC7WRB. If no packets are shown the sender has not sent any weather packets the latest 10 day(s).
| Time | Temp. | Humidity | Pressure | Rain* | Wind** | Luminosity | Snow |
|---|---|---|---|---|---|---|---|
| 1778403903 | 10.56° C | 48% | 1019.7 hPa | 0 mm | - | 0 W/m² | - |
| 1778403597 | 12.22° C | 41% | 1019.8 hPa | 0 mm | - | 0 W/m² | - |
| 1778403293 | 13.33° C | 35% | 1019.8 hPa | 0 mm | - | 0 W/m² | - |
| 1778402989 | 13.33° C | 35% | 1019.8 hPa | 0 mm | - | 0 W/m² | - |
| 1778402686 | 11.67° C | 37% | 1019.5 hPa | 0 mm | - | 0 W/m² | - |
| 1778402382 | 10.56° C | 42% | 1019.5 hPa | 0 mm | - | 0 W/m² | - |
| 1778402079 | 10.56° C | 43% | 1019.7 hPa | 0 mm | - | 0 W/m² | - |
| 1778401774 | 11.11° C | 42% | 1019.7 hPa | 0 mm | - | 0 W/m² | - |
| 1778401473 | 11.11° C | 42% | 1019.8 hPa | 0 mm | - | 0 W/m² | - |
| 1778401171 | 11.11° C | 43% | 1019.7 hPa | 0 mm | - | 0 W/m² | - |
| 1778400867 | 10.56° C | 45% | 1019.8 hPa | 0 mm | - | 0 W/m² | - |
| 1778400564 | 11.11° C | 43% | 1019.8 hPa | 0 mm | - | 0 W/m² | - |
| 1778400263 | 11.11° C | 43% | 1019.9 hPa | 0 mm | - | 0 W/m² | - |
| 1778399960 | 11.11° C | 42% | 1019.7 hPa | 0 mm | - | 0 W/m² | - |
| 1778399658 | 11.11° C | 43% | 1019.7 hPa | 0 mm | - | 0 W/m² | - |
| 1778399354 | 11.67° C | 41% | 1019.8 hPa | 0 mm | - | 0 W/m² | - |
| 1778399051 | 12.22° C | 40% | 1019.7 hPa | 0 mm | - | 0 W/m² | - |
| 1778398748 | 12.78° C | 40% | 1019.9 hPa | 0 mm | - | 0 W/m² | - |
| 1778398443 | 12.22° C | 39% | 1019.9 hPa | 0 mm | - | 0 W/m² | - |
| 1778398140 | 11.67° C | 42% | 1019.8 hPa | 0 mm | - | 0 W/m² | - |
| 1778397837 | 11.67° C | 42% | 1019.8 hPa | 0 mm | - | 0 W/m² | - |
| 1778397532 | 11.67° C | 41% | 1019.9 hPa | 0 mm | - | 0 W/m² | - |
| 1778397229 | 11.67° C | 44% | 1019.9 hPa | 0 mm | - | 0 W/m² | - |
| 1778396928 | 12.22° C | 41% | 1019.8 hPa | 0 mm | - | 0 W/m² | - |
| 1778396624 | 11.11° C | 41% | 1019.9 hPa | 0 mm | - | 0 W/m² | - |
* Rain latest hour (hover to see other rain measurements)
** Current wind speed in m/s (hover to see current wind gust speed)